Terminal Aerodrome Forecast
Issued by NWS

Home | Current Version | Previous Version | Text Only | Print | Product List | Glossary Off
Versions: 1 2 3 4 5 6 7 8 9 10 11 12 13 14 15 16 17 18 19 20 21 22 23 24 25 26 27 28 29 30 31 32

000
FTUS41 KCLE 201400 AAA
TAFFDY
TAF AMD
KFDY 201417Z 2014/2112 23005KT P6SM SCT010
      TEMPO 2014/2016 3SM BR BKN010
     FM201600 26010KT P6SM BKN250
     FM202000 27007KT P6SM SCT040
     FM211000 VRB03KT 4SM BR FEW015 SCT100=

USA.gov is the U.S. government's official web portal to all federal, state and local government web resources and services.